createdAt,value
2017-05-20T04:43:59.636Z,65
2017-05-20T04:44:25.111Z,70
2017-05-20T04:44:50.576Z,70
2017-05-20T04:45:16.053Z,70
2017-05-20T04:45:41.557Z,70
2017-05-20T04:46:07.010Z,70
2017-05-20T04:46:32.506Z,70
2017-05-20T04:46:57.952Z,70
2017-05-20T04:47:23.420Z,70
2017-05-20T04:47:48.886Z,70
2017-05-20T04:48:14.431Z,75
2017-05-20T04:48:39.852Z,75
2017-05-20T04:49:05.336Z,75
2017-05-20T04:49:30.788Z,75
2017-05-20T04:49:56.303Z,75
2017-05-20T04:50:21.772Z,75
2017-05-20T04:50:47.283Z,75
2017-05-20T04:51:12.697Z,75
2017-05-20T04:51:38.172Z,80
2017-05-20T04:52:03.637Z,80
2017-05-20T04:52:29.137Z,80
2017-05-20T04:52:54.590Z,80
2017-05-20T04:53:20.067Z,80
2017-05-20T04:53:45.529Z,80
2017-05-20T04:54:11.025Z,80
2017-05-20T04:54:36.499Z,80
2017-05-20T04:55:01.966Z,80
2017-05-20T04:55:27.439Z,85
2017-05-20T04:55:52.886Z,80
2017-05-20T04:56:18.343Z,85
2017-05-20T04:56:43.813Z,80
2017-05-20T04:57:09.305Z,85
2017-05-20T04:57:34.810Z,85
2017-05-20T04:58:00.231Z,85
2017-05-20T04:58:25.671Z,85
2017-05-20T04:58:51.131Z,85
2017-05-20T04:59:16.584Z,85
2017-05-20T04:59:42.069Z,85
2017-05-20T05:00:07.542Z,85
2017-05-20T05:00:32.997Z,85
2017-05-20T05:00:58.518Z,85
2017-05-20T05:01:23.975Z,90
2017-05-20T05:01:49.458Z,90
2017-05-20T05:02:14.934Z,90
2017-05-20T05:02:40.466Z,90
2017-05-20T05:03:05.964Z,90
2017-05-20T05:03:31.457Z,90
2017-05-20T05:03:56.935Z,90
2017-05-20T05:04:22.401Z,90
2017-05-20T05:04:47.866Z,95
2017-05-20T05:05:13.298Z,95
2017-05-20T05:05:38.793Z,95
2017-05-20T05:06:04.366Z,100
2017-05-20T05:06:29.847Z,100
2017-05-20T05:06:55.345Z,105
2017-05-20T05:07:20.824Z,105
2017-05-20T05:07:46.294Z,105
2017-05-20T05:08:11.816Z,105
2017-05-20T05:08:37.302Z,105
2017-05-20T05:09:02.821Z,105
2017-05-20T05:09:28.345Z,105
2017-05-20T05:09:53.809Z,105
2017-05-20T05:10:19.288Z,105
2017-05-20T05:10:44.752Z,105
2017-05-20T05:11:10.238Z,105
2017-05-20T05:11:35.745Z,105
2017-05-20T05:12:01.219Z,110
2017-05-20T05:12:26.711Z,115
2017-05-20T05:12:52.200Z,110
2017-05-20T05:13:17.676Z,115
2017-05-20T05:13:43.200Z,115
2017-05-20T05:14:08.655Z,115
2017-05-20T05:14:34.121Z,120
2017-05-20T05:14:59.592Z,120
2017-05-20T05:15:25.055Z,125
2017-05-20T05:15:50.488Z,125
2017-05-20T05:16:15.980Z,125
2017-05-20T05:16:41.474Z,125
2017-05-20T05:17:06.939Z,125
2017-05-20T05:17:32.421Z,125
2017-05-20T05:17:57.908Z,125
2017-05-20T05:18:23.366Z,125
2017-05-20T05:18:48.858Z,125
2017-05-20T05:19:14.306Z,125
2017-05-20T05:19:39.771Z,125
2017-05-20T05:20:05.260Z,125
2017-05-20T05:20:30.735Z,125
2017-05-20T05:20:56.217Z,125
2017-05-20T05:21:21.702Z,125
2017-05-20T05:21:47.157Z,125
2017-05-20T05:22:12.734Z,130
2017-05-20T05:22:38.148Z,130
2017-05-20T05:23:03.645Z,130
2017-05-20T05:23:29.128Z,130
2017-05-20T05:23:54.629Z,130
2017-05-20T05:24:20.125Z,130
2017-05-20T05:24:45.568Z,130
2017-05-20T05:25:11.040Z,130
2017-05-20T05:25:36.518Z,130
2017-05-20T05:26:02.031Z,130
2017-05-20T05:26:27.518Z,130
2017-05-20T05:26:53.006Z,130
2017-05-20T05:27:18.466Z,130
2017-05-20T05:27:43.933Z,130
2017-05-20T05:28:09.412Z,130
2017-05-20T05:28:34.894Z,130
2017-05-20T05:29:00.369Z,130
2017-05-20T05:29:25.811Z,135
2017-05-20T05:29:51.286Z,135
2017-05-20T05:30:16.728Z,135
2017-05-20T05:30:42.190Z,140
2017-05-20T05:31:07.676Z,140
2017-05-20T05:31:33.139Z,140
2017-05-20T05:31:58.601Z,140
2017-05-20T05:32:24.073Z,140
2017-05-20T05:32:49.537Z,145
2017-05-20T05:33:15.033Z,145
2017-05-20T05:33:40.498Z,145
2017-05-20T05:34:05.971Z,145
2017-05-20T05:34:31.450Z,145
2017-05-20T05:34:56.921Z,145
2017-05-20T05:35:22.446Z,145
2017-05-20T05:35:47.923Z,145
2017-05-20T05:36:13.396Z,145
2017-05-20T05:36:38.860Z,145
2017-05-20T05:37:04.359Z,150
2017-05-20T05:37:29.853Z,150
2017-05-20T05:37:55.303Z,150
2017-05-20T05:38:20.790Z,155
2017-05-20T05:38:46.291Z,155
2017-05-20T05:39:11.748Z,155
2017-05-20T05:39:37.243Z,155
2017-05-20T05:40:02.676Z,155
2017-05-20T05:40:28.163Z,155
2017-05-20T05:40:53.665Z,160
2017-05-20T05:41:19.123Z,160
2017-05-20T05:41:44.570Z,160
2017-05-20T05:42:10.077Z,160
2017-05-20T05:42:35.526Z,160
2017-05-20T05:43:01.031Z,160
2017-05-20T05:43:26.488Z,160
2017-05-20T05:43:51.973Z,165
2017-05-20T05:44:17.471Z,165
2017-05-20T05:44:42.912Z,165
2017-05-20T05:45:08.385Z,165
2017-05-20T05:45:33.850Z,170
2017-05-20T05:45:59.361Z,170
2017-05-20T05:46:24.842Z,170
2017-05-20T05:46:50.295Z,175
2017-05-20T05:47:15.792Z,170
2017-05-20T05:47:41.326Z,170
2017-05-20T05:48:06.793Z,170
2017-05-20T05:48:32.271Z,170
2017-05-20T05:48:57.714Z,170
2017-05-20T05:49:23.222Z,170
2017-05-20T05:49:48.717Z,170
2017-05-20T05:50:14.177Z,175
2017-05-20T05:50:39.680Z,175
2017-05-20T05:51:05.168Z,175
2017-05-20T05:51:30.655Z,175
2017-05-20T05:51:56.164Z,175
2017-05-20T05:52:21.664Z,175
2017-05-20T05:52:47.153Z,175
2017-05-20T05:53:12.650Z,180
2017-05-20T05:53:38.107Z,180
2017-05-20T05:54:03.558Z,180
2017-05-20T05:54:29.031Z,180
2017-05-20T05:54:54.556Z,180
2017-05-20T05:55:19.972Z,180
2017-05-20T05:55:45.415Z,180
2017-05-20T05:56:10.883Z,180
2017-05-20T05:56:36.370Z,180
2017-05-20T05:57:01.862Z,180
2017-05-20T05:57:27.350Z,180
2017-05-20T05:57:52.822Z,180
2017-05-20T05:58:18.295Z,180
2017-05-20T05:58:43.760Z,180
2017-05-20T05:59:09.221Z,180
2017-05-20T05:59:34.685Z,180
2017-05-20T06:00:00.170Z,180
2017-05-20T06:00:25.677Z,180
2017-05-20T06:00:51.173Z,180
2017-05-20T06:01:16.647Z,180
2017-05-20T06:01:42.094Z,185
2017-05-20T06:02:07.547Z,185
2017-05-20T06:02:33.070Z,185
2017-05-20T06:02:58.522Z,185
2017-05-20T06:03:23.988Z,185
2017-05-20T06:03:49.484Z,190
2017-05-20T06:04:14.958Z,190
2017-05-20T06:04:40.413Z,190
2017-05-20T06:05:05.913Z,190
2017-05-20T06:05:31.373Z,190
2017-05-20T06:05:56.848Z,190
2017-05-20T06:06:22.347Z,190
2017-05-20T06:06:47.789Z,195
2017-05-20T06:07:13.258Z,190
2017-05-20T06:07:38.737Z,190
2017-05-20T06:08:04.178Z,190
2017-05-20T06:08:29.649Z,185
2017-05-20T06:08:55.144Z,185
2017-05-20T06:09:20.614Z,185
2017-05-20T06:09:46.128Z,195
2017-05-20T06:10:11.622Z,190
2017-05-20T06:10:37.079Z,190
2017-05-20T06:11:02.542Z,190
2017-05-20T06:11:28.070Z,190
2017-05-20T06:11:53.489Z,190
2017-05-20T06:12:18.967Z,190
2017-05-20T06:12:44.463Z,195
2017-05-20T06:13:09.941Z,195
2017-05-20T06:13:35.429Z,195
2017-05-20T06:14:00.911Z,195
2017-05-20T06:14:26.399Z,195
2017-05-20T06:14:51.894Z,195
2017-05-20T06:15:17.389Z,195
2017-05-20T06:15:42.847Z,195
2017-05-20T06:16:08.353Z,190
2017-05-20T06:16:33.822Z,195
2017-05-20T06:16:59.316Z,195
2017-05-20T06:17:24.802Z,190
2017-05-20T06:17:50.545Z,195
2017-05-20T06:18:15.974Z,195
2017-05-20T06:18:41.500Z,195
2017-05-20T06:19:06.986Z,195
2017-05-20T06:19:32.453Z,195
2017-05-20T06:19:57.983Z,195
2017-05-20T06:20:23.406Z,195
2017-05-20T06:20:48.876Z,195
2017-05-20T06:21:14.339Z,195
2017-05-20T06:21:39.804Z,195
2017-05-20T06:22:05.287Z,195
2017-05-20T06:22:30.782Z,195
2017-05-20T06:22:56.231Z,200
2017-05-20T06:23:21.710Z,195
2017-05-20T06:23:47.203Z,200
2017-05-20T06:24:12.660Z,215
2017-05-20T06:24:38.160Z,220
2017-05-20T06:25:03.647Z,210
2017-05-20T06:25:29.107Z,205
2017-05-20T06:25:54.631Z,200
2017-05-20T06:26:20.124Z,200
2017-05-20T06:26:45.606Z,200
2017-05-20T06:27:11.072Z,200
2017-05-20T06:27:36.569Z,200
2017-05-20T06:28:02.056Z,200
2017-05-20T06:28:27.537Z,200
2017-05-20T06:28:52.995Z,200
2017-05-20T06:29:18.465Z,200
2017-05-20T06:29:43.937Z,200
2017-05-20T06:30:09.411Z,200
2017-05-20T06:30:34.892Z,200
2017-05-20T06:31:00.399Z,200
2017-05-20T06:31:25.865Z,200
2017-05-20T06:31:51.380Z,195
2017-05-20T06:32:16.849Z,200
2017-05-20T06:32:42.319Z,205
2017-05-20T06:33:07.808Z,205
2017-05-20T06:33:33.315Z,205
2017-05-20T06:33:58.797Z,200
2017-05-20T06:34:24.262Z,205
2017-05-20T06:34:49.763Z,205
2017-05-20T06:35:15.247Z,205
2017-05-20T06:35:40.744Z,205
2017-05-20T06:36:06.223Z,210
2017-05-20T06:36:31.692Z,205
2017-05-20T06:36:57.163Z,205
2017-05-20T06:37:22.687Z,205
2017-05-20T06:37:48.185Z,210
2017-05-20T06:38:13.689Z,210
2017-05-20T06:38:39.162Z,210
2017-05-20T06:39:04.724Z,210
2017-05-20T06:39:30.174Z,235
2017-05-20T06:39:55.659Z,235
2017-05-20T06:40:21.119Z,245
2017-05-20T06:40:46.587Z,250
2017-05-20T06:41:12.067Z,240
2017-05-20T06:41:37.526Z,225
2017-05-20T06:42:03.001Z,220
2017-05-20T06:42:28.487Z,220
2017-05-20T06:42:53.947Z,220
2017-05-20T06:43:19.410Z,225
2017-05-20T06:43:44.898Z,240
2017-05-20T06:44:10.383Z,240
2017-05-20T06:44:35.844Z,215
2017-05-20T06:45:01.310Z,190
2017-05-20T06:45:26.777Z,195
2017-05-20T06:45:52.286Z,215
2017-05-20T06:46:17.761Z,220
2017-05-20T06:46:43.221Z,215
2017-05-20T06:47:08.690Z,210
2017-05-20T06:47:34.191Z,215
2017-05-20T06:48:47.489Z,225
2017-05-20T06:49:12.984Z,170
2017-05-20T06:49:38.451Z,225
2017-05-20T06:50:03.929Z,220
2017-05-20T06:50:29.386Z,220
2017-05-20T06:50:54.844Z,220
2017-05-20T06:51:20.327Z,220
2017-05-20T06:51:45.795Z,225
2017-05-20T06:52:11.268Z,220
2017-05-20T06:52:36.749Z,215
2017-05-20T06:53:02.242Z,220
2017-05-20T06:53:27.702Z,230
2017-05-20T06:53:53.208Z,235
2017-05-20T06:54:18.679Z,240
2017-05-20T06:54:44.162Z,240
2017-05-20T06:55:09.654Z,250
2017-05-20T06:55:35.112Z,240
2017-05-20T06:56:00.602Z,230
2017-05-20T06:56:26.073Z,225
2017-05-20T06:56:51.526Z,225
2017-05-20T06:57:17.003Z,225
2017-05-20T06:57:42.485Z,225
2017-05-20T06:58:08.007Z,225
2017-05-20T06:58:33.526Z,225
2017-05-20T06:58:59.182Z,225
2017-05-20T06:59:24.774Z,235
2017-05-20T06:59:50.306Z,255
2017-05-20T07:00:15.861Z,245
2017-05-20T07:00:41.429Z,235
2017-05-20T07:01:06.975Z,230
2017-05-20T07:01:32.423Z,225
2017-05-20T07:01:57.930Z,225
2017-05-20T07:02:23.432Z,235
2017-05-20T07:02:48.905Z,230
2017-05-20T07:03:14.401Z,225
2017-05-20T07:03:39.881Z,220
2017-05-20T07:04:05.349Z,225
2017-05-20T07:04:30.823Z,240
2017-05-20T07:04:56.293Z,240
2017-05-20T07:05:21.837Z,230
2017-05-20T07:05:47.313Z,230
2017-05-20T07:06:12.762Z,225
2017-05-20T07:06:38.251Z,230
2017-05-20T07:07:03.752Z,225
2017-05-20T07:07:29.229Z,230
2017-05-20T07:07:54.696Z,230
2017-05-20T07:08:20.172Z,235
2017-05-20T07:08:45.664Z,245
2017-05-20T07:09:11.173Z,240
2017-05-20T07:09:36.663Z,230
2017-05-20T07:10:02.137Z,230
2017-05-20T07:10:27.630Z,235
2017-05-20T07:10:53.113Z,235
2017-05-20T07:11:18.603Z,235
2017-05-20T07:11:44.086Z,230
2017-05-20T07:12:09.565Z,235
2017-05-20T07:12:35.031Z,235
2017-05-20T07:13:00.505Z,240
2017-05-20T07:13:25.966Z,235
2017-05-20T07:13:51.467Z,230
2017-05-20T07:14:16.939Z,205
2017-05-20T07:14:42.423Z,210
2017-05-20T07:15:07.895Z,240
2017-05-20T07:15:33.373Z,230
2017-05-20T07:15:58.846Z,230
2017-05-20T07:16:24.345Z,230
2017-05-20T07:16:49.839Z,235
2017-05-20T07:17:15.283Z,275
2017-05-20T07:17:40.800Z,220
2017-05-20T07:18:06.294Z,215
2017-05-20T07:18:31.765Z,275
2017-05-20T07:18:57.294Z,300
2017-05-20T07:19:22.767Z,265
2017-05-20T07:19:48.267Z,280
2017-05-20T07:20:13.735Z,305
2017-05-20T07:20:39.248Z,275
2017-05-20T07:21:04.716Z,225
2017-05-20T07:21:30.223Z,220
2017-05-20T07:21:55.694Z,275
2017-05-20T07:22:21.144Z,285
2017-05-20T07:22:46.624Z,285
2017-05-20T07:23:12.090Z,285
2017-05-20T07:23:37.575Z,295
2017-05-20T07:24:03.055Z,305
2017-05-20T07:24:28.530Z,325
2017-05-20T07:24:54.007Z,315
2017-05-20T07:25:19.469Z,320
2017-05-20T07:25:44.963Z,300
2017-05-20T07:26:10.429Z,305
2017-05-20T07:26:35.904Z,325
2017-05-20T07:27:01.399Z,335
2017-05-20T07:27:26.894Z,340
2017-05-20T07:27:52.368Z,320
2017-05-20T07:28:17.900Z,310
2017-05-20T07:28:43.365Z,300
2017-05-20T07:29:08.832Z,290
2017-05-20T07:29:34.319Z,285
2017-05-20T07:29:59.804Z,280
2017-05-20T07:30:25.309Z,265
2017-05-20T07:30:50.784Z,210
2017-05-20T07:31:16.234Z,210
2017-05-20T07:31:41.741Z,210
2017-05-20T07:32:07.209Z,210
2017-05-20T07:32:32.699Z,215
2017-05-20T07:32:58.194Z,230
2017-05-20T07:33:23.675Z,215
2017-05-20T07:33:49.166Z,195
2017-05-20T07:34:14.619Z,180
2017-05-20T07:34:40.111Z,165
2017-05-20T07:35:05.611Z,150
2017-05-20T07:35:31.107Z,150
2017-05-20T07:35:56.605Z,155
2017-05-20T07:36:22.086Z,155
2017-05-20T07:36:47.559Z,145
2017-05-20T07:37:13.039Z,145
2017-05-20T07:37:38.546Z,150
2017-05-20T07:38:04.024Z,155
2017-05-20T07:38:29.494Z,225
2017-05-20T07:38:54.985Z,230
2017-05-20T07:39:20.454Z,230
2017-05-20T07:39:45.946Z,235
2017-05-20T07:40:11.443Z,235
2017-05-20T07:40:36.932Z,235
2017-05-20T07:41:02.428Z,175
2017-05-20T07:41:27.921Z,160
2017-05-20T07:41:53.409Z,160
2017-05-20T07:42:18.884Z,180
2017-05-20T07:42:44.369Z,210
2017-05-20T07:43:09.862Z,270
2017-05-20T07:43:35.334Z,310
2017-05-20T07:44:00.808Z,305
2017-05-20T07:44:26.307Z,210
2017-05-20T07:44:51.781Z,205
2017-05-20T07:45:17.243Z,205
2017-05-20T07:45:42.752Z,265
2017-05-20T07:46:08.228Z,205
2017-05-20T07:46:33.696Z,205
2017-05-20T07:46:59.171Z,250
2017-05-20T07:47:24.643Z,220
2017-05-20T07:47:50.149Z,200
2017-05-20T07:48:15.638Z,165
2017-05-20T07:48:41.123Z,180
2017-05-20T07:49:06.619Z,230
2017-05-20T07:49:32.122Z,240
2017-05-20T07:49:57.602Z,245
2017-05-20T07:50:23.101Z,255
2017-05-20T07:50:48.582Z,255
2017-05-20T07:51:14.062Z,250
2017-05-20T07:51:39.560Z,240
2017-05-20T07:52:05.033Z,245
2017-05-20T07:52:30.509Z,260
2017-05-20T07:52:55.992Z,290
2017-05-20T07:53:21.465Z,300
2017-05-20T07:53:46.942Z,300
2017-05-20T07:54:12.415Z,300
2017-05-20T07:54:37.887Z,320
2017-05-20T07:55:03.357Z,370
2017-05-20T07:55:28.836Z,465
2017-05-20T07:55:54.341Z,625
2017-05-20T07:56:19.827Z,825
2017-05-20T07:56:45.298Z,910
2017-05-20T07:57:10.768Z,930
2017-05-20T07:57:36.248Z,620
2017-05-20T07:58:01.736Z,1305
2017-05-20T07:58:27.215Z,1125
2017-05-20T07:58:52.715Z,905
2017-05-20T07:59:18.266Z,690
2017-05-20T07:59:43.729Z,485
2017-05-20T08:00:09.220Z,335
2017-05-20T08:00:34.705Z,295
2017-05-20T08:01:00.142Z,270
2017-05-20T08:01:25.591Z,250
2017-05-20T08:01:51.087Z,230
2017-05-20T08:02:16.567Z,220
2017-05-20T08:02:42.024Z,210
2017-05-20T08:03:07.512Z,210
2017-05-20T08:03:32.978Z,205
2017-05-20T08:03:58.432Z,210
2017-05-20T08:04:23.896Z,210
2017-05-20T08:04:49.367Z,205
2017-05-20T08:05:14.821Z,205
2017-05-20T08:05:40.299Z,200
2017-05-20T08:06:05.775Z,200
2017-05-20T08:06:31.250Z,200
2017-05-20T08:06:56.706Z,200
2017-05-20T08:07:22.191Z,200
2017-05-20T08:07:47.676Z,200
2017-05-20T08:08:13.187Z,200
2017-05-20T08:08:38.607Z,195
2017-05-20T08:09:04.111Z,210
2017-05-20T08:09:29.572Z,215
2017-05-20T08:09:55.082Z,225
2017-05-20T08:10:20.548Z,235
2017-05-20T08:10:46.048Z,240
2017-05-20T08:11:11.495Z,235
2017-05-20T08:11:36.967Z,225
2017-05-20T08:12:02.449Z,210
2017-05-20T08:12:27.946Z,200
2017-05-20T08:12:53.422Z,200
2017-05-20T08:13:18.935Z,200
2017-05-20T08:13:44.410Z,195
2017-05-20T08:14:09.885Z,190
2017-05-20T08:14:35.381Z,135
2017-05-20T08:15:00.848Z,180
2017-05-20T08:15:26.326Z,185
2017-05-20T08:15:51.783Z,185
2017-05-20T08:16:17.254Z,185
2017-05-20T08:16:42.718Z,185
2017-05-20T08:17:08.196Z,165
2017-05-20T08:17:33.712Z,190
2017-05-20T08:17:59.181Z,185
2017-05-20T08:18:24.658Z,200
2017-05-20T08:18:50.117Z,205
2017-05-20T08:19:15.624Z,225
2017-05-20T08:19:41.104Z,255
2017-05-20T08:20:06.582Z,290
2017-05-20T08:20:32.038Z,305
2017-05-20T08:20:57.536Z,310
2017-05-20T08:21:23.026Z,305
2017-05-20T08:21:48.482Z,300
2017-05-20T08:22:13.967Z,280
2017-05-20T08:22:39.452Z,270
2017-05-20T08:23:04.907Z,245
2017-05-20T08:23:30.392Z,215
2017-05-20T08:23:55.859Z,205
2017-05-20T08:24:21.317Z,200
2017-05-20T08:24:46.777Z,195
2017-05-20T08:25:12.268Z,195
2017-05-20T08:25:37.735Z,195
2017-05-20T08:26:03.214Z,200
2017-05-20T08:26:28.685Z,200
2017-05-20T08:26:54.148Z,205
2017-05-20T08:27:19.657Z,205
2017-05-20T08:27:45.123Z,205
2017-05-20T08:28:10.590Z,205
2017-05-20T08:28:36.105Z,200
2017-05-20T08:29:01.577Z,200
2017-05-20T08:29:27.055Z,200
2017-05-20T08:29:52.561Z,200
2017-05-20T08:30:18.042Z,205
2017-05-20T08:30:43.521Z,200
2017-05-20T08:31:08.997Z,185
2017-05-20T08:31:34.484Z,190
2017-05-20T08:31:59.944Z,220
2017-05-20T08:32:25.416Z,245
2017-05-20T08:32:50.891Z,240
2017-05-20T08:33:16.403Z,165
2017-05-20T08:33:41.860Z,160
2017-05-20T08:34:07.323Z,155
2017-05-20T08:34:32.773Z,135
2017-05-20T08:34:58.243Z,130
2017-05-20T08:35:23.735Z,140
2017-05-20T08:35:49.178Z,160
2017-05-20T08:36:14.651Z,235
2017-05-20T08:36:40.131Z,220
2017-05-20T08:37:05.640Z,210
2017-05-20T08:37:31.093Z,200
2017-05-20T08:37:56.567Z,135
2017-05-20T08:38:22.019Z,130
2017-05-20T08:38:47.497Z,125
2017-05-20T08:39:12.956Z,125
2017-05-20T08:39:38.442Z,135
2017-05-20T08:40:03.894Z,145
2017-05-20T08:40:29.348Z,160
2017-05-20T08:40:54.836Z,160
2017-05-20T08:41:20.327Z,180
2017-05-20T08:41:45.772Z,145
2017-05-20T08:42:11.252Z,135
2017-05-20T08:42:36.712Z,130
2017-05-20T08:43:02.139Z,150
2017-05-20T08:43:27.616Z,180
2017-05-20T08:43:53.119Z,200
2017-05-20T08:44:18.614Z,225
2017-05-20T08:44:44.088Z,260
2017-05-20T08:45:09.569Z,255
2017-05-20T08:45:35.050Z,255
2017-05-20T08:46:00.515Z,185
2017-05-20T08:46:25.987Z,225
2017-05-20T08:46:51.443Z,280
2017-05-20T08:47:16.906Z,260
2017-05-20T08:47:42.382Z,190
2017-05-20T08:48:07.848Z,175
2017-05-20T08:48:33.319Z,235
2017-05-20T08:48:58.798Z,235
2017-05-20T08:49:24.261Z,175
2017-05-20T08:49:49.736Z,190
2017-05-20T08:50:15.236Z,200
2017-05-20T08:50:40.726Z,190
2017-05-20T08:51:06.216Z,170
2017-05-20T08:51:31.677Z,160
2017-05-20T08:51:57.169Z,155
2017-05-20T08:52:22.668Z,170
2017-05-20T08:52:48.136Z,175
2017-05-20T08:53:13.620Z,165
2017-05-20T08:53:39.100Z,135
2017-05-20T08:54:04.562Z,115
2017-05-20T08:54:30.041Z,110
2017-05-20T08:54:55.516Z,110
2017-05-20T08:55:20.984Z,110
2017-05-20T08:55:46.468Z,125
2017-05-20T08:56:11.945Z,160
2017-05-20T08:56:37.413Z,200
2017-05-20T08:57:02.892Z,255
2017-05-20T08:57:28.349Z,265
2017-05-20T08:57:53.796Z,285
2017-05-20T08:58:19.251Z,305
2017-05-20T08:58:44.712Z,390
2017-05-20T08:59:10.177Z,385
2017-05-20T08:59:35.659Z,310
2017-05-20T09:00:01.138Z,310
2017-05-20T09:00:26.625Z,330
2017-05-20T09:00:52.094Z,320
2017-05-20T09:01:17.575Z,285
2017-05-20T09:01:43.039Z,250
2017-05-20T09:02:08.510Z,230
2017-05-20T09:02:33.980Z,220
2017-05-20T09:02:59.455Z,220
2017-05-20T09:03:24.941Z,230
2017-05-20T09:03:50.416Z,245
2017-05-20T09:04:15.908Z,255
2017-05-20T09:04:41.363Z,250
2017-05-20T09:05:06.828Z,260
2017-05-20T09:05:32.317Z,270
2017-05-20T09:05:57.776Z,290
2017-05-20T09:06:23.234Z,280
2017-05-20T09:06:48.754Z,265
2017-05-20T09:07:14.260Z,255
2017-05-20T09:07:39.764Z,230
2017-05-20T09:08:05.254Z,205
2017-05-20T09:08:30.714Z,185
2017-05-20T09:08:56.223Z,180
2017-05-20T09:09:21.675Z,190
2017-05-20T09:09:47.210Z,190
2017-05-20T09:10:12.649Z,200
2017-05-20T09:10:38.181Z,200
2017-05-20T09:11:03.661Z,200
2017-05-20T09:11:29.157Z,185
2017-05-20T09:11:54.629Z,170
2017-05-20T09:12:20.136Z,165
2017-05-20T09:12:45.555Z,170
2017-05-20T09:13:11.031Z,175
2017-05-20T09:13:36.523Z,180
2017-05-20T09:14:02.004Z,190
2017-05-20T09:14:27.433Z,210
2017-05-20T09:14:52.889Z,220
2017-05-20T09:15:18.374Z,210
2017-05-20T09:15:43.889Z,195
2017-05-20T09:16:09.402Z,180
2017-05-20T09:16:34.870Z,175
2017-05-20T09:17:00.346Z,175
2017-05-20T09:17:25.772Z,180
2017-05-20T09:17:51.229Z,180
2017-05-20T09:18:16.715Z,180
2017-05-20T09:18:42.175Z,175
2017-05-20T09:19:07.637Z,175
2017-05-20T09:19:33.153Z,205
2017-05-20T09:19:58.623Z,190
2017-05-20T09:20:24.100Z,170
2017-05-20T09:20:49.568Z,170
2017-05-20T09:21:15.042Z,170
2017-05-20T09:21:40.489Z,165
2017-05-20T09:22:06.033Z,155
2017-05-20T09:22:31.554Z,180
2017-05-20T09:22:57.017Z,210
2017-05-20T09:23:22.466Z,210
2017-05-20T09:23:47.930Z,190
2017-05-20T09:24:13.420Z,220
2017-05-20T09:24:38.893Z,225
2017-05-20T09:25:04.348Z,220
2017-05-20T09:25:29.803Z,220
2017-05-20T09:25:55.258Z,215
2017-05-20T09:26:20.750Z,215
2017-05-20T09:26:46.232Z,210
2017-05-20T09:27:11.707Z,145
2017-05-20T09:27:37.167Z,135
2017-05-20T09:28:02.643Z,125
2017-05-20T09:28:28.126Z,115
2017-05-20T09:28:53.612Z,115
2017-05-20T09:29:19.088Z,115
2017-05-20T09:29:44.599Z,120
2017-05-20T09:30:10.083Z,125
2017-05-20T09:30:35.568Z,150
2017-05-20T09:31:01.058Z,155
2017-05-20T09:31:26.525Z,180
2017-05-20T09:31:51.979Z,190
2017-05-20T09:32:17.461Z,205
2017-05-20T09:32:42.914Z,215
2017-05-20T09:33:08.463Z,225
2017-05-20T09:33:33.941Z,235
2017-05-20T09:33:59.429Z,225
2017-05-20T09:34:24.889Z,190
2017-05-20T09:34:50.345Z,195
2017-05-20T09:35:15.798Z,165
2017-05-20T09:35:41.251Z,155
2017-05-20T09:36:06.734Z,165
2017-05-20T09:36:32.211Z,175
2017-05-20T09:36:57.691Z,205
2017-05-20T09:37:23.178Z,255
2017-05-20T09:37:48.680Z,265
2017-05-20T09:38:14.158Z,285
2017-05-20T09:38:39.615Z,315
2017-05-20T09:39:05.100Z,275
2017-05-20T09:39:30.593Z,275
2017-05-20T09:39:56.041Z,280
2017-05-20T09:40:21.516Z,280
2017-05-20T09:40:47.027Z,280
2017-05-20T09:41:12.578Z,325
2017-05-20T09:41:38.060Z,335
2017-05-20T09:42:03.519Z,330
2017-05-20T09:42:29.025Z,365
2017-05-20T09:42:54.505Z,365
2017-05-20T09:43:19.998Z,325
2017-05-20T09:43:45.478Z,320
2017-05-20T09:44:10.966Z,310
2017-05-20T09:44:36.450Z,340
2017-05-20T09:45:01.949Z,335
2017-05-20T09:45:27.501Z,330
2017-05-20T09:45:52.955Z,320
2017-05-20T09:46:18.426Z,300
2017-05-20T09:46:43.903Z,285
2017-05-20T09:47:09.388Z,270
2017-05-20T09:47:34.855Z,270
2017-05-20T09:48:00.317Z,280
2017-05-20T09:48:25.774Z,315
2017-05-20T09:48:51.271Z,345
2017-05-20T09:49:16.751Z,365
2017-05-20T09:49:42.220Z,380
2017-05-20T09:50:07.685Z,380
2017-05-20T09:50:33.177Z,390
2017-05-20T09:50:58.676Z,385
2017-05-20T09:51:24.153Z,385
2017-05-20T09:51:49.642Z,380
2017-05-20T09:52:15.137Z,370
2017-05-20T09:52:40.599Z,345
2017-05-20T09:53:06.083Z,315
2017-05-20T09:53:31.575Z,240
2017-05-20T09:53:57.051Z,210
2017-05-20T09:54:22.544Z,185
2017-05-20T09:54:48.015Z,165
2017-05-20T09:55:13.466Z,170
2017-05-20T09:55:38.964Z,135
2017-05-20T09:56:04.442Z,125
2017-05-20T09:56:29.916Z,120
2017-05-20T09:56:55.409Z,120
2017-05-20T09:57:20.882Z,115
2017-05-20T09:57:46.382Z,115
2017-05-20T09:58:11.875Z,120
2017-05-20T09:58:37.340Z,140
2017-05-20T09:59:02.804Z,140
2017-05-20T09:59:28.265Z,145
2017-05-20T09:59:53.716Z,150
2017-05-20T10:00:19.209Z,155
2017-05-20T10:00:44.674Z,155
2017-05-20T10:01:10.157Z,165
2017-05-20T10:01:35.642Z,175
2017-05-20T10:02:01.149Z,195
2017-05-20T10:02:26.600Z,205
2017-05-20T10:02:52.103Z,210
2017-05-20T10:03:17.586Z,215
2017-05-20T10:03:43.061Z,215
2017-05-20T10:04:08.531Z,215
2017-05-20T10:04:33.998Z,220
2017-05-20T10:04:59.469Z,225
2017-05-20T10:05:24.946Z,230
2017-05-20T10:05:50.445Z,230
2017-05-20T10:06:15.921Z,235
2017-05-20T10:06:41.439Z,235
2017-05-20T10:07:06.865Z,260
2017-05-20T10:07:32.380Z,250
2017-05-20T10:07:57.805Z,265
2017-05-20T10:08:23.288Z,300
2017-05-20T10:08:48.778Z,310
2017-05-20T10:09:14.278Z,315
2017-05-20T10:09:39.748Z,320
2017-05-20T10:10:05.213Z,335
2017-05-20T10:10:30.712Z,340
2017-05-20T10:10:56.204Z,340
2017-05-20T10:11:21.690Z,330
2017-05-20T10:11:47.159Z,320
2017-05-20T10:12:12.614Z,310
2017-05-20T10:12:38.084Z,310
2017-05-20T10:13:03.555Z,310
2017-05-20T10:13:28.993Z,315
2017-05-20T10:13:54.464Z,320
2017-05-20T10:14:19.934Z,320
2017-05-20T10:14:45.388Z,320
2017-05-20T10:15:10.873Z,320
2017-05-20T10:15:36.412Z,315
2017-05-20T10:16:01.859Z,305
2017-05-20T10:16:27.322Z,305
2017-05-20T10:16:52.821Z,295
2017-05-20T10:17:18.283Z,285
2017-05-20T10:17:43.754Z,270
2017-05-20T10:18:09.215Z,290
2017-05-20T10:18:34.685Z,290
2017-05-20T10:19:00.138Z,280
2017-05-20T10:19:25.624Z,280
2017-05-20T10:19:51.111Z,280
2017-05-20T10:20:16.675Z,290
2017-05-20T10:20:42.154Z,290
2017-05-20T10:21:07.618Z,280
2017-05-20T10:21:33.087Z,275
2017-05-20T10:21:58.553Z,275
2017-05-20T10:22:24.038Z,275
2017-05-20T10:22:49.504Z,280
2017-05-20T10:23:15.024Z,280
2017-05-20T10:23:40.500Z,270
2017-05-20T10:24:06.003Z,255
2017-05-20T10:24:31.470Z,250
2017-05-20T10:24:56.939Z,245
2017-05-20T10:25:22.410Z,235
2017-05-20T10:25:47.872Z,230
2017-05-20T10:26:13.362Z,230
2017-05-20T10:26:38.857Z,235
2017-05-20T10:27:04.353Z,235
2017-05-20T10:27:29.839Z,230
2017-05-20T10:27:55.312Z,215
2017-05-20T10:28:20.816Z,205
2017-05-20T10:28:46.256Z,185
2017-05-20T10:29:11.777Z,170
2017-05-20T10:29:37.270Z,165
2017-05-20T10:30:02.789Z,155
2017-05-20T10:30:28.274Z,145
2017-05-20T10:30:53.737Z,140
2017-05-20T10:31:19.216Z,135
2017-05-20T10:31:44.725Z,135
2017-05-20T10:32:10.211Z,135
2017-05-20T10:32:35.674Z,135
2017-05-20T10:33:01.142Z,135
2017-05-20T10:33:26.616Z,140
2017-05-20T10:33:52.114Z,145
2017-05-20T10:34:17.588Z,150
2017-05-20T10:35:41.069Z,170
2017-05-20T10:36:06.578Z,185
2017-05-20T10:36:32.055Z,195
2017-05-20T10:36:57.533Z,215